sensor_id;sensor_type;location;lat;lon;timestamp;pressure;altitude;pressure_sealevel;temperature;humidity
11349;BME280;5729;43.570;27.826;2023-02-12T00:01:00;100029.03;;;0.83;100.00
11349;BME280;5729;43.570;27.826;2023-02-12T00:03:25;100020.56;;;0.86;100.00
11349;BME280;5729;43.570;27.826;2023-02-12T00:05:51;100020.56;;;0.86;100.00
11349;BME280;5729;43.570;27.826;2023-02-12T00:08:16;100026.13;;;0.84;100.00
11349;BME280;5729;43.570;27.826;2023-02-12T00:10:42;100020.25;;;0.92;100.00
11349;BME280;5729;43.570;27.826;2023-02-12T00:13:09;100018.13;;;0.99;100.00
11349;BME280;5729;43.570;27.826;2023-02-12T00:15:40;100006.47;;;0.80;100.00
11349;BME280;5729;43.570;27.826;2023-02-12T00:18:07;100016.78;;;1.02;100.00
11349;BME280;5729;43.570;27.826;2023-02-12T00:20:33;100013.59;;;1.05;100.00
11349;BME280;5729;43.570;27.826;2023-02-12T00:22:58;100013.06;;;1.03;100.00
11349;BME280;5729;43.570;27.826;2023-02-12T00:25:24;100018.34;;;1.13;100.00
11349;BME280;5729;43.570;27.826;2023-02-12T00:27:49;100001.16;;;1.00;100.00
11349;BME280;5729;43.570;27.826;2023-02-12T00:30:15;100002.13;;;1.15;100.00
11349;BME280;5729;43.570;27.826;2023-02-12T00:32:41;100004.78;;;1.20;100.00
11349;BME280;5729;43.570;27.826;2023-02-12T00:35:06;100010.41;;;1.03;100.00
11349;BME280;5729;43.570;27.826;2023-02-12T00:37:31;100008.53;;;1.08;100.00
11349;BME280;5729;43.570;27.826;2023-02-12T00:39:57;99999.00;;;1.07;100.00
11349;BME280;5729;43.570;27.826;2023-02-12T00:42:22;100001.34;;;1.19;100.00
11349;BME280;5729;43.570;27.826;2023-02-12T00:44:48;100002.94;;;1.20;100.00
11349;BME280;5729;43.570;27.826;2023-02-12T00:47:13;99994.75;;;1.12;100.00
11349;BME280;5729;43.570;27.826;2023-02-12T00:49:41;99996.38;;;0.97;100.00
11349;BME280;5729;43.570;27.826;2023-02-12T00:52:06;99998.72;;;1.09;100.00
11349;BME280;5729;43.570;27.826;2023-02-12T00:54:32;99989.44;;;1.06;100.00
11349;BME280;5729;43.570;27.826;2023-02-12T00:56:57;99980.91;;;1.15;100.00
11349;BME280;5729;43.570;27.826;2023-02-12T00:59:24;99975.84;;;1.23;100.00
11349;BME280;5729;43.570;27.826;2023-02-12T01:01:50;99980.03;;;1.29;100.00
11349;BME280;5729;43.570;27.826;2023-02-12T01:04:17;99973.16;;;1.28;100.00
11349;BME280;5729;43.570;27.826;2023-02-12T01:06:43;99968.47;;;1.05;100.00
11349;BME280;5729;43.570;27.826;2023-02-12T01:09:08;99974.56;;;1.11;100.00
11349;BME280;5729;43.570;27.826;2023-02-12T01:11:33;99972.75;;;1.01;100.00
11349;BME280;5729;43.570;27.826;2023-02-12T01:13:59;99971.09;;;1.10;100.00
11349;BME280;5729;43.570;27.826;2023-02-12T01:16:24;99967.66;;;1.04;100.00
11349;BME280;5729;43.570;27.826;2023-02-12T01:18:52;99976.75;;;0.88;100.00
11349;BME280;5729;43.570;27.826;2023-02-12T01:21:24;99965.94;;;0.64;100.00
11349;BME280;5729;43.570;27.826;2023-02-12T01:23:50;99960.31;;;0.86;100.00
11349;BME280;5729;43.570;27.826;2023-02-12T01:26:17;99968.84;;;0.73;100.00
11349;BME280;5729;43.570;27.826;2023-02-12T01:28:46;99971.72;;;0.82;100.00
11349;BME280;5729;43.570;27.826;2023-02-12T01:31:15;99970.66;;;0.83;100.00
11349;BME280;5729;43.570;27.826;2023-02-12T01:33:42;99965.63;;;0.86;100.00
11349;BME280;5729;43.570;27.826;2023-02-12T01:36:08;99967.44;;;0.91;100.00
11349;BME280;5729;43.570;27.826;2023-02-12T01:38:34;99969.06;;;0.87;100.00
11349;BME280;5729;43.570;27.826;2023-02-12T01:41:04;99965.44;;;0.52;100.00
11349;BME280;5729;43.570;27.826;2023-02-12T01:43:33;99962.69;;;0.83;100.00
11349;BME280;5729;43.570;27.826;2023-02-12T01:46:00;99957.66;;;0.81;100.00
11349;BME280;5729;43.570;27.826;2023-02-12T01:48:28;99956.84;;;0.86;100.00
11349;BME280;5729;43.570;27.826;2023-02-12T01:50:56;99953.16;;;0.87;100.00
11349;BME280;5729;43.570;27.826;2023-02-12T01:53:24;99952.03;;;0.93;100.00
11349;BME280;5729;43.570;27.826;2023-02-12T01:55:56;99949.66;;;0.91;100.00
11349;BME280;5729;43.570;27.826;2023-02-12T01:58:24;99954.75;;;0.88;100.00
11349;BME280;5729;43.570;27.826;2023-02-12T02:00:51;99944.09;;;0.98;100.00
11349;BME280;5729;43.570;27.826;2023-02-12T02:03:17;99953.91;;;0.92;100.00
11349;BME280;5729;43.570;27.826;2023-02-12T02:08:09;99942.53;;;0.87;100.00
11349;BME280;5729;43.570;27.826;2023-02-12T02:10:35;99927.91;;;0.94;100.00
11349;BME280;5729;43.570;27.826;2023-02-12T02:13:01;99917.81;;;0.96;100.00
11349;BME280;5729;43.570;27.826;2023-02-12T02:15:47;99917.53;;;0.93;100.00
11349;BME280;5729;43.570;27.826;2023-02-12T02:24:36;99922.41;;;0.70;100.00
11349;BME280;5729;43.570;27.826;2023-02-12T02:32:23;99946.00;;;0.77;100.00
11349;BME280;5729;43.570;27.826;2023-02-12T02:35:10;99953.16;;;0.87;100.00
11349;BME280;5729;43.570;27.826;2023-02-12T02:40:19;99943.00;;;0.99;100.00
11349;BME280;5729;43.570;27.826;2023-02-12T02:43:05;99925.75;;;0.96;100.00
11349;BME280;5729;43.570;27.826;2023-02-12T02:48:23;99937.94;;;1.02;100.00
11349;BME280;5729;43.570;27.826;2023-02-12T02:51:00;99942.38;;;1.17;100.00
11349;BME280;5729;43.570;27.826;2023-02-12T02:53:34;99947.22;;;1.10;100.00
11349;BME280;5729;43.570;27.826;2023-02-12T02:56:03;99958.38;;;1.07;100.00
11349;BME280;5729;43.570;27.826;2023-02-12T02:58:36;99951.94;;;1.23;100.00
11349;BME280;5729;43.570;27.826;2023-02-12T03:01:11;99962.38;;;0.99;100.00
11349;BME280;5729;43.570;27.826;2023-02-12T03:03:58;99956.78;;;1.11;100.00
11349;BME280;5729;43.570;27.826;2023-02-12T03:09:18;99957.78;;;1.20;100.00
11349;BME280;5729;43.570;27.826;2023-02-12T03:11:46;99961.28;;;1.11;100.00
11349;BME280;5729;43.570;27.826;2023-02-12T03:14:16;99954.38;;;1.09;100.00
11349;BME280;5729;43.570;27.826;2023-02-12T03:17:01;99951.75;;;1.04;100.00
11349;BME280;5729;43.570;27.826;2023-02-12T03:19:34;99956.72;;;1.21;100.00
11349;BME280;5729;43.570;27.826;2023-02-12T03:22:05;99961.28;;;1.11;100.00
11349;BME280;5729;43.570;27.826;2023-02-12T03:24:48;99968.69;;;1.14;100.00
11349;BME280;5729;43.570;27.826;2023-02-12T03:27:26;99964.13;;;1.24;100.00
11349;BME280;5729;43.570;27.826;2023-02-12T03:29:53;99971.03;;;1.25;100.00
11349;BME280;5729;43.570;27.826;2023-02-12T03:32:28;99965.47;;;1.22;100.00
11349;BME280;5729;43.570;27.826;2023-02-12T03:43:11;99954.75;;;0.88;100.00
11349;BME280;5729;43.570;27.826;2023-02-12T03:45:51;99952.88;;;0.83;100.00
11349;BME280;5729;43.570;27.826;2023-02-12T03:48:36;99956.06;;;0.85;100.00
11349;BME280;5729;43.570;27.826;2023-02-12T03:51:16;99956.28;;;0.99;100.00
11349;BME280;5729;43.570;27.826;2023-02-12T03:53:43;99968.03;;;0.72;100.00
11349;BME280;5729;43.570;27.826;2023-02-12T03:56:36;99976.75;;;0.83;100.00
11349;BME280;5729;43.570;27.826;2023-02-12T03:58:58;99971.91;;;1.05;100.00
11349;BME280;5729;43.570;27.826;2023-02-12T04:01:25;99971.63;;;1.12;100.00
11349;BME280;5729;43.570;27.826;2023-02-12T04:03:51;99989.69;;;1.10;100.00
11349;BME280;5729;43.570;27.826;2023-02-12T04:06:26;99989.97;;;1.08;100.00
11349;BME280;5729;43.570;27.826;2023-02-12T04:08:54;99989.72;;;0.95;100.00
11349;BME280;5729;43.570;27.826;2023-02-12T04:11:33;99983.97;;;0.78;100.00
11349;BME280;5729;43.570;27.826;2023-02-12T04:14:30;99998.78;;;0.89;100.00
11349;BME280;5729;43.570;27.826;2023-02-12T04:17:47;100001.47;;;0.73;100.00
11349;BME280;5729;43.570;27.826;2023-02-12T04:25:52;100015.81;;;0.78;100.00
11349;BME280;5729;43.570;27.826;2023-02-12T04:31:53;100022.44;;;0.70;100.00
11349;BME280;5729;43.570;27.826;2023-02-12T04:34:45;100006.50;;;0.85;100.00
11349;BME280;5729;43.570;27.826;2023-02-12T04:37:19;100021.09;;;0.83;100.00
11349;BME280;5729;43.570;27.826;2023-02-12T04:39:47;100025.06;;;0.80;100.00
11349;BME280;5729;43.570;27.826;2023-02-12T04:42:13;100026.13;;;0.69;100.00
11349;BME280;5729;43.570;27.826;2023-02-12T04:44:42;100024.28;;;0.69;100.00
11349;BME280;5729;43.570;27.826;2023-02-12T04:47:12;100025.34;;;0.58;100.00
11349;BME280;5729;43.570;27.826;2023-02-12T04:49:39;100022.19;;;0.46;100.00
11349;BME280;5729;43.570;27.826;2023-02-12T04:52:04;100024.31;;;0.29;100.00
11349;BME280;5729;43.570;27.826;2023-02-12T04:54:30;100024.31;;;0.34;100.00
11349;BME280;5729;43.570;27.826;2023-02-12T04:56:55;100032.25;;;0.24;100.00
11349;BME280;5729;43.570;27.826;2023-02-12T04:59:21;100035.72;;;0.14;100.00
11349;BME280;5729;43.570;27.826;2023-02-12T05:01:46;100034.66;;;0.15;100.00
11349;BME280;5729;43.570;27.826;2023-02-12T05:04:14;100048.44;;;0.12;100.00
11349;BME280;5729;43.570;27.826;2023-02-12T05:06:40;100043.13;;;0.12;100.00
11349;BME280;5729;43.570;27.826;2023-02-12T05:09:07;100051.31;;;0.00;100.00
11349;BME280;5729;43.570;27.826;2023-02-12T05:11:33;100052.38;;;-0.06;100.00
11349;BME280;5729;43.570;27.826;2023-02-12T05:13:58;100044.19;;;0.06;100.00
11349;BME280;5729;43.570;27.826;2023-02-12T05:16:24;100054.00;;;0.06;100.00
11349;BME280;5729;43.570;27.826;2023-02-12T05:18:50;100050.00;;;0.03;100.00
11349;BME280;5729;43.570;27.826;2023-02-12T05:21:16;100060.28;;;-0.21;100.00
11349;BME280;5729;43.570;27.826;2023-02-12T05:23:41;100061.13;;;-0.05;100.00
11349;BME280;5729;43.570;27.826;2023-02-12T05:26:11;100068.78;;;-0.19;100.00
11349;BME280;5729;43.570;27.826;2023-02-12T05:28:37;100066.63;;;-0.32;100.00
11349;BME280;5729;43.570;27.826;2023-02-12T05:31:06;100065.09;;;-0.13;100.00
11349;BME280;5729;43.570;27.826;2023-02-12T05:33:32;100068.81;;;0.02;100.00
11349;BME280;5729;43.570;27.826;2023-02-12T05:36:13;100058.72;;;-0.17;100.00
11349;BME280;5729;43.570;27.826;2023-02-12T05:38:39;100071.94;;;-0.27;100.00
11349;BME280;5729;43.570;27.826;2023-02-12T05:41:08;100079.16;;;-0.02;100.00
11349;BME280;5729;43.570;27.826;2023-02-12T05:43:34;100087.38;;;0.12;100.00
11349;BME280;5729;43.570;27.826;2023-02-12T05:46:01;100079.72;;;0.10;100.00
11349;BME280;5729;43.570;27.826;2023-02-12T05:48:28;100093.00;;;0.35;100.00
11349;BME280;5729;43.570;27.826;2023-02-12T05:50:53;100102.03;;;0.40;100.00
11349;BME280;5729;43.570;27.826;2023-02-12T05:53:19;100088.75;;;0.50;100.00
11349;BME280;5729;43.570;27.826;2023-02-12T05:55:45;100098.06;;;0.78;100.00
11349;BME280;5729;43.570;27.826;2023-02-12T05:58:10;100098.84;;;0.88;100.00
11349;BME280;5729;43.570;27.826;2023-02-12T06:00:36;100106.25;;;1.06;100.00
11349;BME280;5729;43.570;27.826;2023-02-12T06:03:01;100102.25;;;1.19;100.00
11349;BME280;5729;43.570;27.826;2023-02-12T06:05:27;100112.31;;;1.22;100.00
11349;BME280;5729;43.570;27.826;2023-02-12T06:07:52;100106.47;;;1.30;100.00
11349;BME280;5729;43.570;27.826;2023-02-12T06:10:18;100096.41;;;1.07;100.00
11349;BME280;5729;43.570;27.826;2023-02-12T06:12:43;100115.19;;;1.46;100.00
11349;BME280;5729;43.570;27.826;2023-02-12T06:15:08;100117.00;;;1.56;100.00
11349;BME280;5729;43.570;27.826;2023-02-12T06:17:34;100121.75;;;1.59;100.00
11349;BME280;5729;43.570;27.826;2023-02-12T06:20:00;100112.25;;;1.48;100.00
11349;BME280;5729;43.570;27.826;2023-02-12T06:22:28;100116.22;;;1.50;100.00
11349;BME280;5729;43.570;27.826;2023-02-12T06:24:54;100122.91;;;1.37;100.00
11349;BME280;5729;43.570;27.826;2023-02-12T06:27:19;100129.28;;;1.41;100.00
11349;BME280;5729;43.570;27.826;2023-02-12T06:29:45;100108.75;;;1.62;100.00
11349;BME280;5729;43.570;27.826;2023-02-12T06:32:10;100118.88;;;1.55;100.00
11349;BME280;5729;43.570;27.826;2023-02-12T06:34:38;100123.03;;;1.76;100.00
11349;BME280;5729;43.570;27.826;2023-02-12T06:37:03;100125.13;;;1.90;100.00
11349;BME280;5729;43.570;27.826;2023-02-12T06:39:29;100124.06;;;1.86;100.00
11349;BME280;5729;43.570;27.826;2023-02-12T06:41:54;100129.06;;;1.92;100.00
11349;BME280;5729;43.570;27.826;2023-02-12T06:44:20;100132.78;;;2.01;100.00
11349;BME280;5729;43.570;27.826;2023-02-12T06:46:45;100133.00;;;2.05;100.00
11349;BME280;5729;43.570;27.826;2023-02-12T06:49:11;100135.31;;;2.22;100.00
11349;BME280;5729;43.570;27.826;2023-02-12T06:51:38;100144.16;;;2.12;100.00
11349;BME280;5729;43.570;27.826;2023-02-12T06:54:12;100123.94;;;2.06;100.00
11349;BME280;5729;43.570;27.826;2023-02-12T06:56:38;100147.28;;;2.24;100.00
11349;BME280;5729;43.570;27.826;2023-02-12T06:59:03;100144.91;;;2.17;100.00
11349;BME280;5729;43.570;27.826;2023-02-12T07:01:29;100146.59;;;1.98;100.00
11349;BME280;5729;43.570;27.826;2023-02-12T07:03:59;100156.25;;;1.79;100.00
11349;BME280;5729;43.570;27.826;2023-02-12T07:06:28;100161.91;;;1.52;100.00
11349;BME280;5729;43.570;27.826;2023-02-12T07:08:55;100142.34;;;1.02;100.00
11349;BME280;5729;43.570;27.826;2023-02-12T07:11:25;100159.56;;;1.25;100.00
11349;BME280;5729;43.570;27.826;2023-02-12T07:13:51;100164.88;;;1.35;100.00
11349;BME280;5729;43.570;27.826;2023-02-12T07:16:17;100158.75;;;1.40;100.00
11349;BME280;5729;43.570;27.826;2023-02-12T07:18:44;100159.53;;;1.56;100.00
11349;BME280;5729;43.570;27.826;2023-02-12T07:21:11;100161.53;;;1.89;100.00
11349;BME280;5729;43.570;27.826;2023-02-12T07:23:37;100162.06;;;1.86;100.00
11349;BME280;5729;43.570;27.826;2023-02-12T07:26:09;100164.16;;;1.94;100.00
11349;BME280;5729;43.570;27.826;2023-02-12T07:28:35;100171.41;;;1.73;100.00
11349;BME280;5729;43.570;27.826;2023-02-12T07:31:08;100167.88;;;1.98;100.00
11349;BME280;5729;43.570;27.826;2023-02-12T07:33:35;100169.22;;;1.96;100.00
11349;BME280;5729;43.570;27.826;2023-02-12T07:36:01;100165.22;;;1.98;100.00
11349;BME280;5729;43.570;27.826;2023-02-12T07:38:27;100165.44;;;2.07;100.00
11349;BME280;5729;43.570;27.826;2023-02-12T07:40:53;100170.63;;;2.27;100.00
11349;BME280;5729;43.570;27.826;2023-02-12T07:43:18;100169.84;;;2.27;100.00
11349;BME280;5729;43.570;27.826;2023-02-12T07:45:44;100178.69;;;2.17;100.00
11349;BME280;5729;43.570;27.826;2023-02-12T07:48:09;100180.00;;;2.25;100.00
11349;BME280;5729;43.570;27.826;2023-02-12T07:50:35;100175.94;;;2.32;100.00
11349;BME280;5729;43.570;27.826;2023-02-12T07:53:00;100178.47;;;2.58;100.00
11349;BME280;5729;43.570;27.826;2023-02-12T07:55:26;100183.00;;;2.91;100.00
11349;BME280;5729;43.570;27.826;2023-02-12T07:57:51;100191.09;;;3.10;100.00
11349;BME280;5729;43.570;27.826;2023-02-12T08:00:17;100185.75;;;3.15;100.00
11349;BME280;5729;43.570;27.826;2023-02-12T08:02:42;100177.56;;;3.35;100.00
11349;BME280;5729;43.570;27.826;2023-02-12T08:05:08;100179.63;;;3.67;100.00
11349;BME280;5729;43.570;27.826;2023-02-12T08:07:33;100182.94;;;3.83;100.00
11349;BME280;5729;43.570;27.826;2023-02-12T08:09:59;100185.75;;;3.91;100.00
11349;BME280;5729;43.570;27.826;2023-02-12T08:12:24;100185.44;;;4.17;100.00
11349;BME280;5729;43.570;27.826;2023-02-12T08:14:50;100193.22;;;4.13;100.00
11349;BME280;5729;43.570;27.826;2023-02-12T08:17:15;100198.06;;;4.30;100.00
11349;BME280;5729;43.570;27.826;2023-02-12T08:19:40;100197.75;;;4.13;100.00
11349;BME280;5729;43.570;27.826;2023-02-12T08:22:06;100198.78;;;4.17;100.00
11349;BME280;5729;43.570;27.826;2023-02-12T08:24:32;100191.00;;;3.96;100.00
11349;BME280;5729;43.570;27.826;2023-02-12T08:26:57;100206.03;;;4.11;100.00
11349;BME280;5729;43.570;27.826;2023-02-12T08:29:26;100203.41;;;4.30;100.00
11349;BME280;5729;43.570;27.826;2023-02-12T08:31:57;100203.84;;;4.56;100.00
11349;BME280;5729;43.570;27.826;2023-02-12T08:34:28;100216.69;;;4.54;100.00
11349;BME280;5729;43.570;27.826;2023-02-12T08:36:55;100203.28;;;4.59;100.00
11349;BME280;5729;43.570;27.826;2023-02-12T08:39:22;100217.13;;;4.80;100.00
11349;BME280;5729;43.570;27.826;2023-02-12T08:41:48;100226.59;;;4.72;100.00
11349;BME280;5729;43.570;27.826;2023-02-12T08:44:14;100223.09;;;4.53;100.00
11349;BME280;5729;43.570;27.826;2023-02-12T08:46:47;100229.09;;;4.26;100.00
11349;BME280;5729;43.570;27.826;2023-02-12T08:49:16;100235.50;;;4.25;100.00
11349;BME280;5729;43.570;27.826;2023-02-12T08:51:45;100230.19;;;4.01;100.00
11349;BME280;5729;43.570;27.826;2023-02-12T08:54:14;100232.00;;;3.82;100.00
11349;BME280;5729;43.570;27.826;2023-02-12T08:56:41;100243.41;;;3.87;100.00
11349;BME280;5729;43.570;27.826;2023-02-12T08:59:07;100243.75;;;3.81;100.00
11349;BME280;5729;43.570;27.826;2023-02-12T09:01:35;100241.59;;;3.83;100.00
11349;BME280;5729;43.570;27.826;2023-02-12T09:04:03;100246.41;;;3.81;100.00
11349;BME280;5729;43.570;27.826;2023-02-12T09:06:31;100240.00;;;3.82;100.00
11349;BME280;5729;43.570;27.826;2023-02-12T09:08:57;100244.41;;;3.68;100.00
11349;BME280;5729;43.570;27.826;2023-02-12T09:11:25;100249.13;;;3.76;100.00
11349;BME280;5729;43.570;27.826;2023-02-12T09:13:56;100253.38;;;3.77;100.00
11349;BME280;5729;43.570;27.826;2023-02-12T09:16:22;100251.56;;;3.72;100.00
11349;BME280;5729;43.570;27.826;2023-02-12T09:18:48;100263.00;;;3.73;100.00
11349;BME280;5729;43.570;27.826;2023-02-12T09:21:14;100267.00;;;3.46;100.00
11349;BME280;5729;43.570;27.826;2023-02-12T09:23:42;100263.69;;;3.59;100.00
11349;BME280;5729;43.570;27.826;2023-02-12T09:26:10;100267.69;;;3.57;100.00
11349;BME280;5729;43.570;27.826;2023-02-12T09:28:37;100262.38;;;3.57;100.00
11349;BME280;5729;43.570;27.826;2023-02-12T09:31:25;100260.97;;;3.64;100.00
11349;BME280;5729;43.570;27.826;2023-02-12T09:33:53;100258.72;;;3.77;100.00
11349;BME280;5729;43.570;27.826;2023-02-12T09:36:18;100248.59;;;3.74;100.00
11349;BME280;5729;43.570;27.826;2023-02-12T09:38:44;100260.34;;;3.96;100.00
11349;BME280;5729;43.570;27.826;2023-02-12T09:44:06;100263.66;;;3.88;100.00
11349;BME280;5729;43.570;27.826;2023-02-12T09:49:22;100262.81;;;4.17;100.00
11349;BME280;5729;43.570;27.826;2023-02-12T09:51:52;100266.28;;;4.17;100.00
11349;BME280;5729;43.570;27.826;2023-02-12T09:54:22;100266.91;;;4.09;100.00
11349;BME280;5729;43.570;27.826;2023-02-12T09:56:52;100261.44;;;3.95;100.00
11349;BME280;5729;43.570;27.826;2023-02-12T10:01:52;100271.66;;;4.12;100.00
11349;BME280;5729;43.570;27.826;2023-02-12T10:04:18;100269.84;;;4.31;100.00
11349;BME280;5729;43.570;27.826;2023-02-12T10:10:09;100270.72;;;4.46;100.00
11349;BME280;5729;43.570;27.826;2023-02-12T10:19:04;100271.81;;;4.45;100.00
11349;BME280;5729;43.570;27.826;2023-02-12T10:26:43;100267.66;;;4.57;100.00
11349;BME280;5729;43.570;27.826;2023-02-12T10:29:15;100259.69;;;4.52;100.00
11349;BME280;5729;43.570;27.826;2023-02-12T10:31:44;100260.81;;;4.27;100.00
11349;BME280;5729;43.570;27.826;2023-02-12T10:34:17;100267.38;;;4.59;100.00
11349;BME280;5729;43.570;27.826;2023-02-12T10:36:47;100271.53;;;4.46;100.00
11349;BME280;5729;43.570;27.826;2023-02-12T10:39:19;100270.34;;;4.33;100.00
11349;BME280;5729;43.570;27.826;2023-02-12T10:41:57;100267.28;;;4.21;100.00
11349;BME280;5729;43.570;27.826;2023-02-12T10:44:26;100275.63;;;4.38;100.00
11349;BME280;5729;43.570;27.826;2023-02-12T10:46:51;100278.75;;;4.22;100.00
11349;BME280;5729;43.570;27.826;2023-02-12T10:49:18;100267.56;;;4.20;100.00
11349;BME280;5729;43.570;27.826;2023-02-12T10:52:55;100268.53;;;4.29;100.00
11349;BME280;5729;43.570;27.826;2023-02-12T10:54:47;100270.59;;;4.37;100.00
11349;BME280;5729;43.570;27.826;2023-02-12T10:57:22;100289.59;;;4.30;100.00
11349;BME280;5729;43.570;27.826;2023-02-12T10:59:50;100301.69;;;4.47;100.00
11349;BME280;5729;43.570;27.826;2023-02-12T11:02:25;100283.44;;;4.54;100.00
11349;BME280;5729;43.570;27.826;2023-02-12T11:04:52;100288.78;;;4.54;100.00
11349;BME280;5729;43.570;27.826;2023-02-12T11:07:19;100292.69;;;4.61;100.00
11349;BME280;5729;43.570;27.826;2023-02-12T11:09:47;100288.13;;;4.43;100.00
11349;BME280;5729;43.570;27.826;2023-02-12T11:12:27;100298.91;;;4.33;100.00
11349;BME280;5729;43.570;27.826;2023-02-12T11:14:56;100291.59;;;4.20;100.00
11349;BME280;5729;43.570;27.826;2023-02-12T11:17:44;100295.41;;;4.37;100.00
11349;BME280;5729;43.570;27.826;2023-02-12T11:22:59;100306.59;;;4.40;100.00
11349;BME280;5729;43.570;27.826;2023-02-12T11:25:28;100297.78;;;4.39;100.00
11349;BME280;5729;43.570;27.826;2023-02-12T11:28:16;100303.13;;;4.39;100.00
11349;BME280;5729;43.570;27.826;2023-02-12T11:30:51;100296.75;;;4.59;100.00
11349;BME280;5729;43.570;27.826;2023-02-12T11:35:56;100301.03;;;4.36;100.00
11349;BME280;5729;43.570;27.826;2023-02-12T11:38:52;100314.59;;;4.40;100.00
11349;BME280;5729;43.570;27.826;2023-02-12T11:43:59;100317.53;;;3.90;100.00
11349;BME280;5729;43.570;27.826;2023-02-12T11:46:26;100305.72;;;4.20;100.00
11349;BME280;5729;43.570;27.826;2023-02-12T11:48:54;100312.22;;;4.14;100.00
11349;BME280;5729;43.570;27.826;2023-02-12T11:51:25;100303.44;;;4.32;100.00
11349;BME280;5729;43.570;27.826;2023-02-12T11:53:55;100308.75;;;4.14;100.00
11349;BME280;5729;43.570;27.826;2023-02-12T11:56:22;100306.69;;;4.29;100.00
11349;BME280;5729;43.570;27.826;2023-02-12T11:58:49;100308.56;;;4.29;100.00
11349;BME280;5729;43.570;27.826;2023-02-12T12:01:22;100310.22;;;4.25;100.00
11349;BME280;5729;43.570;27.826;2023-02-12T12:04:06;100310.78;;;4.46;100.00
11349;BME280;5729;43.570;27.826;2023-02-12T12:06:45;100311.84;;;4.45;100.00
11349;BME280;5729;43.570;27.826;2023-02-12T12:09:23;100308.78;;;4.56;100.00
11349;BME280;5729;43.570;27.826;2023-02-12T12:15:15;100298.47;;;4.50;100.00
11349;BME280;5729;43.570;27.826;2023-02-12T12:17:44;100311.03;;;4.68;100.00
11349;BME280;5729;43.570;27.826;2023-02-12T12:20:37;100312.59;;;4.50;100.00
11349;BME280;5729;43.570;27.826;2023-02-12T12:23:13;100296.72;;;4.40;100.00
11349;BME280;5729;43.570;27.826;2023-02-12T12:25:45;100312.25;;;4.57;100.00
11349;BME280;5729;43.570;27.826;2023-02-12T12:28:32;100311.97;;;4.34;100.00
11349;BME280;5729;43.570;27.826;2023-02-12T12:33:40;100307.66;;;4.15;100.00
11349;BME280;5729;43.570;27.826;2023-02-12T12:54:41;100326.28;;;4.20;100.00
11349;BME280;5729;43.570;27.826;2023-02-12T13:05:53;100346.34;;;4.17;100.00
11349;BME280;5729;43.570;27.826;2023-02-12T13:11:14;100350.84;;;3.93;100.00
11349;BME280;5729;43.570;27.826;2023-02-12T13:13:47;100356.34;;;4.01;100.00
11349;BME280;5729;43.570;27.826;2023-02-12T13:16:20;100350.25;;;3.96;100.00
11349;BME280;5729;43.570;27.826;2023-02-12T13:27:19;100389.00;;;3.88;100.00
11349;BME280;5729;43.570;27.826;2023-02-12T13:29:52;100394.31;;;3.93;100.00
11349;BME280;5729;43.570;27.826;2023-02-12T13:32:29;100388.38;;;3.68;100.00
11349;BME280;5729;43.570;27.826;2023-02-12T13:34:58;100400.31;;;3.75;100.00
11349;BME280;5729;43.570;27.826;2023-02-12T13:37:44;100392.63;;;3.69;100.00
11349;BME280;5729;43.570;27.826;2023-02-12T13:40:25;100407.91;;;3.58;100.00
11349;BME280;5729;43.570;27.826;2023-02-12T13:56:45;100425.53;;;3.93;100.00
11349;BME280;5729;43.570;27.826;2023-02-12T13:59:44;100413.91;;;3.79;100.00
11349;BME280;5729;43.570;27.826;2023-02-12T14:04:59;100434.31;;;4.27;100.00
11349;BME280;5729;43.570;27.826;2023-02-12T14:07:41;100434.00;;;4.29;100.00
11349;BME280;5729;43.570;27.826;2023-02-12T14:10:17;100440.28;;;4.67;100.00
11349;BME280;5729;43.570;27.826;2023-02-12T14:12:43;100438.81;;;4.80;100.00
11349;BME280;5729;43.570;27.826;2023-02-12T14:15:31;100428.34;;;5.07;100.00
11349;BME280;5729;43.570;27.826;2023-02-12T14:20:36;100444.22;;;4.74;100.00
11349;BME280;5729;43.570;27.826;2023-02-12T14:25:58;100438.94;;;4.93;100.00
11349;BME280;5729;43.570;27.826;2023-02-12T14:31:30;100450.00;;;4.58;100.00
11349;BME280;5729;43.570;27.826;2023-02-12T14:41:37;100475.38;;;4.84;100.00
11349;BME280;5729;43.570;27.826;2023-02-12T14:44:36;100469.66;;;4.67;100.00
11349;BME280;5729;43.570;27.826;2023-02-12T14:47:08;100474.59;;;4.55;100.00
11349;BME280;5729;43.570;27.826;2023-02-12T14:49:51;100485.56;;;4.53;100.00
11349;BME280;5729;43.570;27.826;2023-02-12T14:52:29;100495.81;;;4.41;100.00
11349;BME280;5729;43.570;27.826;2023-02-12T14:55:04;100494.63;;;4.52;100.00
11349;BME280;5729;43.570;27.826;2023-02-12T14:57:39;100504.16;;;4.34;100.00
11349;BME280;5729;43.570;27.826;2023-02-12T15:00:35;100514.38;;;4.27;100.00
11349;BME280;5729;43.570;27.826;2023-02-12T15:03:21;100514.56;;;4.36;100.00
11349;BME280;5729;43.570;27.826;2023-02-12T15:14:06;100526.22;;;4.11;100.00
11349;BME280;5729;43.570;27.826;2023-02-12T15:25:26;100549.94;;;3.69;100.00
11349;BME280;5729;43.570;27.826;2023-02-12T15:28:03;100556.38;;;3.62;100.00
11349;BME280;5729;43.570;27.826;2023-02-12T15:30:33;100561.44;;;3.64;100.00
11349;BME280;5729;43.570;27.826;2023-02-12T15:33:03;100564.34;;;3.68;100.00
11349;BME280;5729;43.570;27.826;2023-02-12T15:35:34;100570.53;;;3.53;100.00
11349;BME280;5729;43.570;27.826;2023-02-12T15:38:01;100566.34;;;3.37;100.00
11349;BME280;5729;43.570;27.826;2023-02-12T15:40:29;100574.31;;;3.42;100.00
11349;BME280;5729;43.570;27.826;2023-02-12T15:43:03;100577.59;;;3.18;100.00
11349;BME280;5729;43.570;27.826;2023-02-12T15:45:32;100598.38;;;3.16;100.00
11349;BME280;5729;43.570;27.826;2023-02-12T15:48:14;100598.38;;;3.06;100.00
11349;BME280;5729;43.570;27.826;2023-02-12T15:51:13;100605.59;;;3.06;100.00
11349;BME280;5729;43.570;27.826;2023-02-12T15:53:41;100609.59;;;3.13;100.00